createdAt,value
2019-06-10T00:02:04.207Z,15.80
2019-06-10T00:04:31.446Z,15.80
2019-06-10T00:06:57.770Z,15.80
2019-06-10T00:09:23.856Z,15.80
2019-06-10T00:11:51.442Z,15.80
2019-06-10T00:14:17.807Z,15.80
2019-06-10T00:16:43.855Z,15.80
2019-06-10T00:19:12.762Z,15.80
2019-06-10T00:21:41.239Z,15.80
2019-06-10T00:24:08.484Z,15.80
2019-06-10T00:26:34.687Z,15.80
2019-06-10T00:29:03.140Z,15.80
2019-06-10T00:31:31.247Z,15.70
2019-06-10T00:33:59.288Z,15.60
2019-06-10T00:36:25.914Z,15.60
2019-06-10T00:38:54.396Z,15.60
2019-06-10T00:41:21.894Z,15.50
2019-06-10T00:43:51.546Z,15.50
2019-06-10T00:46:17.485Z,15.50
2019-06-10T00:48:43.525Z,15.60
2019-06-10T00:51:12.709Z,15.50
2019-06-10T00:53:37.589Z,15.50
2019-06-10T00:56:05.605Z,15.50
2019-06-10T00:58:32.088Z,15.50
2019-06-10T01:01:00.679Z,15.50
2019-06-10T01:03:26.948Z,15.50
2019-06-10T01:05:53.013Z,15.40
2019-06-10T01:08:21.252Z,15.40
2019-06-10T01:10:47.031Z,15.50
2019-06-10T01:13:15.350Z,15.50
2019-06-10T01:15:42.015Z,15.50
2019-06-10T01:18:30.505Z,15.40
2019-06-10T01:20:36.883Z,15.50
2019-06-10T01:23:02.936Z,15.50
2019-06-10T01:25:30.994Z,15.50
2019-06-10T01:27:56.990Z,15.50
2019-06-10T01:30:26.982Z,15.40
2019-06-10T01:32:52.008Z,15.40
2019-06-10T01:35:18.086Z,15.40
2019-06-10T01:37:44.554Z,15.40
2019-06-10T01:40:14.448Z,15.40
2019-06-10T01:42:41.299Z,15.40
2019-06-10T01:45:11.099Z,15.30
2019-06-10T01:47:36.754Z,15.30
2019-06-10T01:50:08.847Z,15.30
2019-06-10T01:52:36.028Z,15.20
2019-06-10T01:55:04.616Z,15.20
2019-06-10T01:57:30.888Z,15.20
2019-06-10T01:59:57.129Z,15.10
2019-06-10T02:02:25.173Z,15.10
2019-06-10T02:04:51.825Z,15.10
2019-06-10T02:07:18.792Z,15.10
2019-06-10T02:09:45.928Z,15.20
2019-06-10T02:12:14.574Z,15.20
2019-06-10T02:14:41.615Z,15.20
2019-06-10T02:17:08.116Z,15.20
2019-06-10T02:19:34.195Z,15.20
2019-06-10T02:22:01.370Z,15.30
2019-06-10T02:24:27.598Z,15.30
2019-06-10T02:26:53.636Z,15.30
2019-06-10T02:29:22.250Z,15.30
2019-06-10T02:31:52.205Z,15.20
2019-06-10T02:34:26.433Z,15.20
2019-06-10T02:36:46.540Z,15.20
2019-06-10T02:39:21.507Z,15.20
2019-06-10T02:41:44.566Z,15.30
2019-06-10T02:44:09.651Z,15.30
2019-06-10T02:46:36.569Z,15.30
2019-06-10T02:49:21.396Z,15.30
2019-06-10T02:51:35.434Z,15.20
2019-06-10T02:53:59.493Z,15.20
2019-06-10T02:56:30.672Z,15.20
2019-06-10T02:58:55.738Z,15.20
2019-06-10T03:01:28.409Z,15.20
2019-06-10T03:03:50.894Z,15.30
2019-06-10T03:06:20.120Z,15.30
2019-06-10T03:08:45.780Z,15.30
2019-06-10T03:11:14.115Z,15.30
2019-06-10T03:13:42.576Z,15.30
2019-06-10T03:16:13.029Z,15.30
2019-06-10T03:18:40.183Z,15.30
2019-06-10T03:21:06.554Z,15.30
2019-06-10T03:23:34.032Z,15.30
2019-06-10T03:26:03.662Z,15.30
2019-06-10T03:28:28.919Z,15.30
2019-06-10T03:30:58.850Z,15.30
2019-06-10T03:33:27.700Z,15.30
2019-06-10T03:35:52.652Z,15.30
2019-06-10T03:38:23.093Z,15.30
2019-06-10T03:40:48.907Z,15.30
2019-06-10T03:43:16.710Z,15.30
2019-06-10T03:45:43.069Z,15.30
2019-06-10T03:48:09.107Z,15.30
2019-06-10T03:50:35.666Z,15.10
2019-06-10T03:53:04.390Z,15.10
2019-06-10T03:55:33.095Z,15.10
2019-06-10T03:58:01.608Z,15.10
2019-06-10T04:00:28.853Z,15.10
2019-06-10T04:02:55.071Z,15.20
2019-06-10T04:05:23.889Z,15.20
2019-06-10T04:07:49.438Z,15.10
2019-06-10T04:10:17.532Z,15.10
2019-06-10T04:12:45.418Z,15.00
2019-06-10T04:15:12.420Z,15.00
2019-06-10T04:17:39.586Z,14.80
2019-06-10T04:20:12.129Z,14.80
2019-06-10T04:22:35.823Z,14.80
2019-06-10T04:25:03.929Z,14.90
2019-06-10T04:27:30.173Z,15.00
2019-06-10T04:29:56.287Z,15.00
2019-06-10T04:32:25.458Z,14.90
2019-06-10T04:34:52.956Z,15.00
2019-06-10T04:37:20.345Z,15.00
2019-06-10T04:39:46.492Z,15.10
2019-06-10T04:42:12.968Z,15.20
2019-06-10T04:44:39.213Z,15.20
2019-06-10T04:47:05.280Z,15.30
2019-06-10T04:49:32.698Z,15.30
2019-06-10T04:51:59.023Z,15.30
2019-06-10T04:54:26.612Z,15.30
2019-06-10T04:56:53.036Z,15.40
2019-06-10T04:59:24.374Z,15.40
2019-06-10T05:01:49.623Z,15.40
2019-06-10T05:04:17.303Z,15.40
2019-06-10T05:06:43.352Z,15.40
2019-06-10T05:09:12.337Z,15.30
2019-06-10T05:11:39.507Z,15.30
2019-06-10T05:14:06.245Z,15.20
2019-06-10T05:16:35.699Z,15.30
2019-06-10T05:19:03.609Z,15.30
2019-06-10T05:21:29.768Z,15.30
2019-06-10T05:23:56.912Z,15.30
2019-06-10T05:26:25.588Z,15.20
2019-06-10T05:28:52.471Z,15.30
2019-06-10T05:31:20.235Z,15.30
2019-06-10T05:33:46.399Z,15.40
2019-06-10T05:36:13.980Z,15.40
2019-06-10T05:38:40.019Z,15.50
2019-06-10T05:41:06.094Z,15.50
2019-06-10T05:43:34.506Z,15.60
2019-06-10T05:46:02.959Z,15.70
2019-06-10T05:48:30.384Z,15.70
2019-06-10T05:51:02.902Z,15.90
2019-06-10T05:53:26.547Z,15.90
2019-06-10T05:55:54.115Z,15.80
2019-06-10T05:58:23.104Z,15.80
2019-06-10T06:00:48.515Z,15.80
2019-06-10T06:03:14.584Z,15.80
2019-06-10T06:05:40.632Z,15.80
2019-06-10T06:08:09.037Z,15.80
2019-06-10T06:10:36.058Z,15.90
2019-06-10T06:13:03.130Z,16.00
2019-06-10T06:15:34.684Z,16.20
2019-06-10T06:18:07.175Z,16.10
2019-06-10T06:20:27.672Z,16.20
2019-06-10T06:22:53.710Z,16.30
2019-06-10T06:25:19.760Z,16.40
2019-06-10T06:27:47.045Z,16.50
2019-06-10T06:30:18.559Z,16.50
2019-06-10T06:32:43.607Z,16.60
2019-06-10T06:35:12.517Z,16.70
2019-06-10T06:37:39.682Z,16.80
2019-06-10T06:40:06.321Z,16.90
2019-06-10T06:42:35.071Z,16.90
2019-06-10T06:45:03.041Z,16.90
2019-06-10T06:47:29.796Z,17.00
2019-06-10T06:49:55.944Z,17.10
2019-06-10T06:52:46.654Z,17.20
2019-06-10T06:54:53.010Z,17.20
2019-06-10T06:57:22.375Z,17.20
2019-06-10T06:59:48.603Z,17.30
2019-06-10T07:02:14.845Z,17.40
2019-06-10T07:04:43.292Z,17.50
2019-06-10T07:07:13.081Z,17.60
2019-06-10T07:09:38.986Z,17.70
2019-06-10T07:12:05.355Z,17.70
2019-06-10T07:14:34.335Z,17.80
2019-06-10T07:16:59.775Z,17.80
2019-06-10T07:19:26.116Z,17.80
2019-06-10T07:22:08.377Z,17.90
2019-06-10T07:24:23.128Z,18.00
2019-06-10T07:26:52.229Z,18.20
2019-06-10T07:29:17.356Z,18.20
2019-06-10T07:31:46.652Z,18.30
2019-06-10T07:34:12.961Z,18.40
2019-06-10T07:36:39.248Z,18.40
2019-06-10T07:39:05.971Z,18.40
2019-06-10T07:41:34.388Z,18.50
2019-06-10T07:44:03.103Z,18.60
2019-06-10T07:46:29.240Z,18.60
2019-06-10T07:48:56.593Z,18.70
2019-06-10T07:51:23.188Z,18.80
2019-06-10T07:53:49.312Z,19.00
2019-06-10T07:56:15.479Z,19.00
2019-06-10T07:58:46.980Z,19.10
2019-06-10T08:01:12.878Z,19.20
2019-06-10T08:03:39.743Z,19.30
2019-06-10T08:06:06.593Z,19.40
2019-06-10T08:08:34.589Z,19.50
2019-06-10T08:11:03.497Z,19.50
2019-06-10T08:13:29.031Z,19.70
2019-06-10T08:15:55.376Z,19.70
2019-06-10T08:18:23.167Z,19.80
2019-06-10T08:20:49.349Z,19.90
2019-06-10T08:23:17.965Z,20.00
2019-06-10T08:25:51.029Z,19.90
2019-06-10T08:28:14.667Z,20.00
2019-06-10T08:30:43.053Z,20.10
2019-06-10T08:33:10.354Z,20.20
2019-06-10T08:35:44.491Z,20.30
2019-06-10T08:38:04.780Z,20.40
2019-06-10T08:40:32.569Z,20.50
2019-06-10T08:42:59.229Z,20.60
2019-06-10T08:45:26.346Z,20.80
2019-06-10T08:47:54.193Z,20.90
2019-06-10T08:50:21.903Z,20.90
2019-06-10T08:53:03.296Z,20.90
2019-06-10T08:55:17.040Z,20.90
2019-06-10T08:57:46.956Z,21.10
2019-06-10T09:00:15.177Z,21.20
2019-06-10T09:02:40.999Z,21.20
2019-06-10T09:05:12.517Z,21.40
2019-06-10T09:07:39.660Z,21.40
2019-06-10T09:10:06.852Z,21.50
2019-06-10T09:12:36.468Z,21.50
2019-06-10T09:15:03.671Z,21.50
2019-06-10T09:17:33.732Z,21.60
2019-06-10T09:19:58.540Z,21.80
2019-06-10T09:22:24.595Z,22.00
2019-06-10T09:24:54.865Z,22.10
2019-06-10T09:27:23.804Z,22.20
2019-06-10T09:29:52.123Z,22.30
2019-06-10T09:32:16.763Z,22.20
2019-06-10T09:34:47.174Z,22.10
2019-06-10T09:37:12.335Z,22.20
2019-06-10T09:39:39.807Z,22.20
2019-06-10T09:42:06.921Z,22.40
2019-06-10T09:44:33.458Z,22.40
2019-06-10T09:47:03.339Z,22.30
2019-06-10T09:49:29.746Z,22.30
2019-06-10T09:51:57.483Z,22.10
2019-06-10T09:54:23.772Z,22.10
2019-06-10T09:56:51.044Z,22.20
2019-06-10T09:59:19.137Z,22.20
2019-06-10T10:01:49.035Z,22.40
2019-06-10T10:04:14.674Z,22.30
2019-06-10T10:06:42.103Z,22.50
2019-06-10T10:09:08.899Z,22.70
2019-06-10T10:11:35.932Z,22.60
2019-06-10T10:14:06.413Z,22.70
2019-06-10T10:16:30.277Z,22.80
2019-06-10T10:19:00.230Z,23.00
2019-06-10T10:21:24.373Z,22.90
2019-06-10T10:24:04.387Z,23.00
2019-06-10T10:26:18.568Z,23.10
2019-06-10T10:28:48.055Z,23.20
2019-06-10T10:31:13.115Z,23.00
2019-06-10T10:33:39.979Z,23.10
2019-06-10T10:36:06.099Z,23.30
2019-06-10T10:38:34.424Z,23.30
2019-06-10T10:41:04.204Z,23.30
2019-06-10T10:43:34.242Z,23.40
2019-06-10T10:46:00.079Z,23.60
2019-06-10T10:48:24.380Z,23.80
2019-06-10T10:50:54.331Z,24.10
2019-06-10T10:53:18.923Z,24.10
2019-06-10T10:55:45.464Z,24.30
2019-06-10T10:58:12.908Z,24.30
2019-06-10T11:00:44.795Z,24.50
2019-06-10T11:03:13.359Z,24.30
2019-06-10T11:05:39.385Z,24.10
2019-06-10T11:08:06.726Z,24.10
2019-06-10T11:10:33.677Z,24.30
2019-06-10T11:13:03.840Z,24.40
2019-06-10T11:15:33.775Z,24.70
2019-06-10T11:18:01.270Z,24.60
2019-06-10T11:20:31.531Z,24.70
2019-06-10T11:22:58.640Z,24.80
2019-06-10T11:25:25.940Z,24.50
2019-06-10T11:27:53.019Z,24.50
2019-06-10T11:30:20.195Z,24.70
2019-06-10T11:32:47.835Z,24.70
2019-06-10T11:35:14.496Z,24.80
2019-06-10T11:37:42.286Z,24.80
2019-06-10T11:40:09.947Z,24.70
2019-06-10T11:42:36.264Z,24.50
2019-06-10T11:45:06.176Z,24.60
2019-06-10T11:47:32.990Z,24.70
2019-06-10T11:49:59.295Z,24.90
2019-06-10T11:52:25.703Z,25.20
2019-06-10T11:55:05.583Z,25.30
2019-06-10T11:57:26.160Z,25.50
2019-06-10T12:10:43.513Z,25.40
2019-06-10T12:13:09.750Z,25.00
2019-06-10T12:16:20.880Z,25.10
2019-06-10T12:18:19.475Z,24.90
2019-06-10T12:20:57.562Z,24.90
2019-06-10T12:23:22.132Z,24.60
2019-06-10T12:25:49.614Z,24.50
2019-06-10T12:28:15.852Z,24.60
2019-06-10T12:30:42.470Z,24.70
2019-06-10T12:33:09.264Z,24.60
2019-06-10T12:35:35.309Z,24.60
2019-06-10T12:38:05.867Z,24.70
2019-06-10T12:40:30.118Z,24.70
2019-06-10T12:42:58.346Z,24.70
2019-06-10T12:45:24.363Z,24.70
2019-06-10T12:47:53.339Z,24.70
2019-06-10T12:50:19.279Z,24.70
2019-06-10T12:52:45.368Z,24.60
2019-06-10T12:55:12.526Z,24.60
2019-06-10T12:57:38.888Z,24.60
2019-06-10T13:00:19.403Z,24.50
2019-06-10T13:02:37.294Z,24.60
2019-06-10T13:05:06.997Z,24.80
2019-06-10T13:07:37.220Z,25.00
2019-06-10T13:10:05.459Z,25.10
2019-06-10T13:12:33.228Z,25.20
2019-06-10T13:15:04.758Z,25.40
2019-06-10T13:17:28.656Z,25.70
2019-06-10T13:19:55.437Z,25.70
2019-06-10T13:22:23.101Z,25.70
2019-06-10T13:24:49.332Z,25.70
2019-06-10T13:27:15.760Z,25.60
2019-06-10T13:29:43.065Z,25.70
2019-06-10T13:32:09.992Z,25.70
2019-06-10T13:34:36.791Z,25.90
2019-06-10T13:37:03.892Z,26.10
2019-06-10T13:39:32.543Z,26.00
2019-06-10T13:41:59.918Z,25.90
2019-06-10T13:44:27.196Z,25.90
2019-06-10T13:46:53.359Z,25.80
2019-06-10T13:49:19.407Z,25.70
2019-06-10T13:51:45.491Z,25.60
2019-06-10T13:54:13.993Z,25.50
2019-06-10T13:56:47.135Z,25.40
2019-06-10T13:59:09.613Z,25.30
2019-06-10T14:01:35.852Z,25.20
2019-06-10T14:04:10.429Z,25.10
2019-06-10T14:06:44.560Z,25.10
2019-06-10T14:09:00.879Z,25.10
2019-06-10T14:11:30.305Z,25.20
2019-06-10T14:13:58.049Z,25.20
2019-06-10T14:16:25.219Z,25.10
2019-06-10T14:18:53.905Z,25.10
2019-06-10T14:21:23.162Z,25.10
2019-06-10T14:23:47.711Z,25.10
2019-06-10T14:26:17.023Z,25.00
2019-06-10T14:28:44.315Z,25.00
2019-06-10T14:31:32.287Z,25.00
2019-06-10T14:33:38.069Z,25.00
2019-06-10T14:36:05.871Z,24.90
2019-06-10T14:38:33.077Z,24.80
2019-06-10T14:40:59.244Z,24.80
2019-06-10T14:43:25.429Z,24.70
2019-06-10T14:45:53.516Z,24.70
2019-06-10T14:48:19.468Z,24.60
2019-06-10T14:50:45.807Z,24.60
2019-06-10T14:53:14.162Z,24.50
2019-06-10T14:55:39.881Z,24.50
2019-06-10T14:58:07.835Z,24.40
2019-06-10T15:00:34.135Z,24.40
2019-06-10T15:03:05.107Z,24.20
2019-06-10T15:05:32.284Z,24.20
2019-06-10T15:07:58.329Z,24.10
2019-06-10T15:10:24.819Z,24.10
2019-06-10T15:12:52.900Z,24.00
2019-06-10T15:15:21.058Z,23.90
2019-06-10T15:17:47.891Z,23.90
2019-06-10T15:20:15.748Z,23.80
2019-06-10T15:22:43.133Z,23.80
2019-06-10T15:25:11.538Z,23.80
2019-06-10T15:27:37.944Z,23.80
2019-06-10T15:30:14.843Z,23.70
2019-06-10T15:32:36.952Z,23.60
2019-06-10T15:35:05.131Z,23.50
2019-06-10T15:37:33.041Z,23.40
2019-06-10T15:39:59.912Z,23.50
2019-06-10T15:42:26.123Z,23.40
2019-06-10T15:44:56.002Z,23.30
2019-06-10T15:47:26.280Z,23.20
2019-06-10T15:49:49.477Z,23.10
2019-06-10T15:52:18.408Z,23.00
2019-06-10T15:54:43.744Z,23.00
2019-06-10T15:57:26.880Z,23.00
2019-06-10T15:59:38.373Z,23.00
2019-06-10T16:02:04.460Z,23.00
2019-06-10T16:04:34.934Z,23.00
2019-06-10T16:06:59.470Z,23.00
2019-06-10T16:09:25.660Z,22.90
2019-06-10T16:11:53.779Z,22.80
2019-06-10T16:14:21.373Z,22.80
2019-06-10T16:16:48.511Z,22.80
2019-06-10T16:19:16.289Z,22.80
2019-06-10T16:21:43.120Z,22.70
2019-06-10T16:24:10.066Z,22.70
2019-06-10T16:26:36.853Z,22.60
2019-06-10T16:29:04.267Z,22.60
2019-06-10T16:31:30.593Z,22.60
2019-06-10T16:33:56.754Z,22.60
2019-06-10T16:36:25.859Z,22.60
2019-06-10T16:38:52.792Z,22.50
2019-06-10T16:41:19.567Z,22.50
2019-06-10T16:43:45.933Z,22.40
2019-06-10T16:46:12.180Z,22.30
2019-06-10T16:48:43.439Z,22.20
2019-06-10T16:51:13.028Z,22.10
2019-06-10T16:53:38.206Z,22.00
2019-06-10T16:56:04.449Z,21.80
2019-06-10T16:58:33.173Z,21.70
2019-06-10T17:00:59.157Z,21.60
2019-06-10T17:03:27.153Z,21.50
2019-06-10T17:05:53.439Z,21.40
2019-06-10T17:08:20.629Z,21.40
2019-06-10T17:10:48.001Z,21.30
2019-06-10T17:13:16.431Z,21.20
2019-06-10T17:15:43.024Z,21.30
2019-06-10T17:18:09.172Z,21.20
2019-06-10T17:20:35.670Z,21.20
2019-06-10T17:23:26.416Z,21.20
2019-06-10T17:25:53.439Z,21.00
2019-06-10T17:28:24.694Z,20.90
2019-06-10T17:30:48.781Z,20.90
2019-06-10T17:33:15.799Z,20.80
2019-06-10T17:35:43.178Z,20.70
2019-06-10T17:38:12.097Z,20.60
2019-06-10T17:40:38.096Z,20.60
2019-06-10T17:43:04.188Z,20.60
2019-06-10T17:45:30.939Z,20.50
2019-06-10T17:48:02.935Z,20.50
2019-06-10T17:50:29.968Z,20.50
2019-06-10T17:52:56.928Z,20.50
2019-06-10T17:55:26.565Z,20.40
2019-06-10T17:57:51.660Z,20.40
2019-06-10T18:00:17.803Z,20.30
2019-06-10T18:02:44.624Z,20.20
2019-06-10T18:05:12.749Z,20.20
2019-06-10T18:07:39.627Z,20.10
2019-06-10T18:10:06.259Z,20.00
2019-06-10T18:12:33.980Z,19.90
2019-06-10T18:15:03.352Z,19.90
2019-06-10T18:17:28.838Z,19.80
2019-06-10T18:19:55.356Z,19.80
2019-06-10T18:22:22.850Z,19.80
2019-06-10T18:24:52.240Z,19.80
2019-06-10T18:27:18.637Z,19.80
2019-06-10T18:29:45.724Z,19.80
2019-06-10T18:32:12.876Z,19.80
2019-06-10T18:34:38.942Z,19.80
2019-06-10T18:37:05.043Z,19.80
2019-06-10T18:39:31.528Z,19.80
2019-06-10T18:41:57.892Z,19.80
2019-06-10T18:44:26.562Z,19.70
2019-06-10T18:46:52.736Z,19.70
2019-06-10T18:49:18.932Z,19.70
2019-06-10T18:51:45.148Z,19.70
2019-06-10T18:54:12.843Z,19.60
2019-06-10T18:56:40.060Z,19.60
2019-06-10T18:59:16.725Z,19.60
2019-06-10T19:01:34.455Z,19.60
2019-06-10T19:04:02.689Z,19.70
2019-06-10T19:06:29.142Z,19.60
2019-06-10T19:08:55.412Z,19.60
2019-06-10T19:11:21.631Z,19.50
2019-06-10T19:13:47.764Z,19.50
2019-06-10T19:16:13.803Z,19.40
2019-06-10T19:18:42.983Z,19.30
2019-06-10T19:21:09.116Z,19.30
2019-06-10T19:23:37.788Z,19.40
2019-06-10T19:26:03.930Z,19.30
2019-06-10T19:28:30.568Z,19.30
2019-06-10T19:30:58.116Z,19.30
2019-06-10T19:33:24.534Z,19.20
2019-06-10T19:35:52.977Z,19.10
2019-06-10T19:38:19.575Z,19.00
2019-06-10T19:40:45.711Z,19.00
2019-06-10T19:43:12.348Z,19.00
2019-06-10T19:45:42.445Z,19.00
2019-06-10T19:48:07.874Z,19.00
2019-06-10T19:50:34.878Z,19.00
2019-06-10T19:53:02.758Z,18.90
2019-06-10T19:55:32.011Z,18.90
2019-06-10T19:57:58.018Z,18.80
2019-06-10T20:00:24.848Z,18.80
2019-06-10T20:02:52.448Z,18.80
2019-06-10T20:05:18.843Z,18.80
2019-06-10T20:07:50.031Z,18.80
2019-06-10T20:10:14.531Z,18.70
2019-06-10T20:12:43.301Z,18.60
2019-06-10T20:15:22.881Z,18.50
2019-06-10T20:17:52.349Z,18.50
2019-06-10T20:20:18.967Z,18.40
2019-06-10T20:22:46.663Z,18.30
2019-06-10T20:25:13.606Z,18.30
2019-06-10T20:27:42.832Z,18.30
2019-06-10T20:30:23.519Z,18.20
2019-06-10T20:32:41.506Z,18.20
2019-06-10T20:35:06.865Z,18.20
2019-06-10T20:37:33.239Z,18.20
2019-06-10T20:39:59.667Z,18.10
2019-06-10T20:42:25.759Z,18.00
2019-06-10T20:44:51.847Z,18.00
2019-06-10T20:47:18.089Z,18.00
2019-06-10T20:49:47.513Z,17.90
2019-06-10T20:52:14.884Z,17.80
2019-06-10T20:54:43.394Z,17.80
2019-06-10T20:57:12.045Z,17.80
2019-06-10T20:59:39.061Z,17.80
2019-06-10T21:02:05.747Z,17.80
2019-06-10T21:04:32.343Z,17.80
2019-06-10T21:07:02.301Z,17.70
2019-06-10T21:09:27.704Z,17.80
2019-06-10T21:11:54.544Z,17.70
2019-06-10T21:14:22.919Z,17.70
2019-06-10T21:16:50.195Z,17.60
2019-06-10T21:19:17.029Z,17.60
2019-06-10T21:21:45.684Z,17.50
2019-06-10T21:24:12.677Z,17.40
2019-06-10T21:26:38.818Z,17.30
2019-06-10T21:29:05.389Z,17.20
2019-06-10T21:31:32.611Z,17.30
2019-06-10T21:33:58.851Z,17.20
2019-06-10T21:36:24.996Z,17.10
2019-06-10T21:38:55.393Z,17.10
2019-06-10T21:41:22.586Z,17.00
2019-06-10T21:43:54.731Z,17.00
2019-06-10T21:46:16.844Z,17.00
2019-06-10T21:48:45.704Z,17.00
2019-06-10T21:51:12.266Z,16.90
2019-06-10T21:53:39.292Z,16.90
2019-06-10T21:56:05.933Z,16.90
2019-06-10T21:58:32.843Z,16.90
2019-06-10T22:01:09.754Z,16.80
2019-06-10T22:03:27.954Z,16.80
2019-06-10T22:05:54.121Z,16.80
2019-06-10T22:08:20.919Z,16.80
2019-06-10T22:10:48.030Z,16.70
2019-06-10T22:13:15.666Z,16.80
2019-06-10T22:15:42.472Z,16.90
2019-06-10T22:18:09.097Z,16.80
2019-06-10T22:20:35.171Z,16.80
2019-06-10T22:23:02.697Z,16.80
2019-06-10T22:25:29.928Z,16.70
2019-06-10T22:27:56.472Z,16.70
2019-06-10T22:30:22.956Z,16.60
2019-06-10T22:32:49.364Z,16.40
2019-06-10T22:35:16.739Z,16.40
2019-06-10T22:37:42.915Z,16.40
2019-06-10T22:40:09.360Z,16.40
2019-06-10T22:42:35.404Z,16.40
2019-06-10T22:45:03.958Z,16.30
2019-06-10T22:47:32.398Z,16.30
2019-06-10T22:50:00.544Z,16.30
2019-06-10T22:52:27.183Z,16.20
2019-06-10T22:54:55.155Z,16.20
2019-06-10T22:57:22.154Z,16.20
2019-06-10T22:59:48.679Z,16.00
2019-06-10T23:02:15.179Z,16.00
2019-06-10T23:04:43.435Z,16.00
2019-06-10T23:07:09.656Z,16.00
2019-06-10T23:09:36.118Z,16.10
2019-06-10T23:12:02.846Z,16.10
2019-06-10T23:14:29.588Z,16.10
2019-06-10T23:16:57.158Z,16.10
2019-06-10T23:19:27.124Z,16.00
2019-06-10T23:21:54.248Z,15.90
2019-06-10T23:24:22.727Z,15.80
2019-06-10T23:26:49.722Z,15.80
2019-06-10T23:29:15.945Z,15.60
2019-06-10T23:31:52.218Z,15.50
2019-06-10T23:34:11.657Z,15.50
2019-06-10T23:36:38.474Z,15.50
2019-06-10T23:39:05.178Z,15.50
2019-06-10T23:41:32.894Z,15.50
2019-06-10T23:43:59.655Z,15.60
2019-06-10T23:46:26.008Z,15.50
2019-06-10T23:48:53.223Z,15.60
2019-06-10T23:51:19.597Z,15.60
2019-06-10T23:53:45.936Z,15.60
2019-06-10T23:56:12.840Z,15.60
2019-06-10T23:58:38.964Z,15.60
